createdAt,value
2023-03-16T00:04:11.179Z,11.20
2023-03-16T00:14:14.442Z,9.90
2023-03-16T00:24:18.725Z,9.60
2023-03-16T00:34:23.091Z,10.40
2023-03-16T00:44:26.246Z,8.10
2023-03-16T00:54:29.794Z,9.60
2023-03-16T01:04:34.374Z,9.70
2023-03-16T01:14:38.265Z,8.70
2023-03-16T01:24:46.226Z,8.50
2023-03-16T01:34:49.380Z,8.20
2023-03-16T01:45:05.790Z,9.00
2023-03-16T01:55:15.140Z,9.70
2023-03-16T02:05:25.977Z,9.30
2023-03-16T02:15:31.920Z,9.90
2023-03-16T02:25:59.921Z,9.80
2023-03-16T02:36:04.643Z,8.20
2023-03-16T02:46:08.705Z,9.30
2023-03-16T02:56:12.525Z,9.50
2023-03-16T03:06:16.743Z,8.50
2023-03-16T03:16:20.259Z,8.50
2023-03-16T03:26:25.049Z,8.80
2023-03-16T03:36:28.880Z,8.30
2023-03-16T03:46:32.428Z,8.70
2023-03-16T03:56:36.139Z,8.40
2023-03-16T04:06:46.589Z,10.10
2023-03-16T04:16:50.041Z,11.00
2023-03-16T04:26:55.383Z,10.20
2023-03-16T04:36:58.920Z,10.20
2023-03-16T04:47:03.820Z,8.90
2023-03-16T04:57:12.532Z,10.40
2023-03-16T05:07:19.982Z,10.50
2023-03-16T05:17:26.357Z,11.30
2023-03-16T05:27:31.408Z,11.60
2023-03-16T05:37:38.391Z,12.50
2023-03-16T05:47:44.111Z,13.80
2023-03-16T05:57:47.570Z,13.10
2023-03-16T06:07:53.459Z,13.10
2023-03-16T06:17:57.410Z,16.00
2023-03-16T06:28:01.430Z,13.60
2023-03-16T06:38:05.969Z,15.70
2023-03-16T06:48:23.694Z,13.30
2023-03-16T06:58:27.269Z,13.00
2023-03-16T07:08:31.444Z,12.40
2023-03-16T07:18:34.962Z,11.30
2023-03-16T07:28:39.482Z,11.70
2023-03-16T07:38:43.361Z,9.20
2023-03-16T07:48:48.561Z,7.30
2023-03-16T07:58:53.561Z,7.50
2023-03-16T08:08:56.909Z,7.80
2023-03-16T08:19:06.350Z,6.00
2023-03-16T08:29:09.766Z,8.10
2023-03-16T08:39:14.053Z,6.30
2023-03-16T08:49:21.211Z,4.50
2023-03-16T08:59:31.519Z,5.20
2023-03-16T09:09:35.695Z,4.00
2023-03-16T09:20:01.289Z,12.80
2023-03-16T09:30:07.681Z,7.40
2023-03-16T09:40:25.573Z,4.60
2023-03-16T10:01:37.156Z,3.90
2023-03-16T10:11:48.315Z,3.90
2023-03-16T10:21:55.998Z,4.30
2023-03-16T10:32:12.808Z,3.20
2023-03-16T10:42:20.186Z,3.80
2023-03-16T10:52:46.919Z,3.10
2023-03-16T11:02:52.108Z,4.60
2023-03-16T11:13:03.398Z,6.00
2023-03-16T11:23:16.840Z,4.20
2023-03-16T11:33:23.365Z,4.20
2023-03-16T11:43:35.510Z,4.40
2023-03-16T11:53:38.956Z,5.50
2023-03-16T12:04:07.698Z,4.60
2023-03-16T12:14:11.143Z,4.80
2023-03-16T12:24:27.253Z,4.80
2023-03-16T12:34:56.369Z,4.50
2023-03-16T12:45:20.152Z,5.70
2023-03-16T12:55:44.542Z,4.90
2023-03-16T13:05:54.171Z,6.20
2023-03-16T13:16:07.107Z,7.00
2023-03-16T13:26:14.779Z,7.20
2023-03-16T13:36:18.346Z,6.00
2023-03-16T13:46:27.942Z,6.50
2023-03-16T13:56:33.123Z,6.30
2023-03-16T14:06:37.843Z,5.50
2023-03-16T14:16:41.352Z,6.10
2023-03-16T14:26:47.378Z,6.00
2023-03-16T14:36:50.572Z,5.10
2023-03-16T14:46:59.640Z,4.60
2023-03-16T14:57:06.865Z,5.40
2023-03-16T15:07:36.884Z,5.20
2023-03-16T15:17:40.090Z,5.60
2023-03-16T15:27:44.677Z,4.80
2023-03-16T15:37:48.246Z,4.90
2023-03-16T15:47:53.443Z,5.40
2023-03-16T15:58:02.630Z,4.80
2023-03-16T16:08:06.190Z,5.30
2023-03-16T16:18:30.391Z,5.10
2023-03-16T16:28:35.210Z,6.20
2023-03-16T16:38:38.457Z,6.60
2023-03-16T16:48:50.841Z,7.90
2023-03-16T16:58:58.034Z,6.30
2023-03-16T17:09:01.853Z,8.50
2023-03-16T17:19:07.478Z,13.50
2023-03-16T17:29:21.255Z,14.00
2023-03-16T17:39:27.308Z,22.30
2023-03-16T17:49:32.084Z,24.80
2023-03-16T17:59:36.498Z,27.60
2023-03-16T18:09:41.099Z,19.80
2023-03-16T18:19:48.950Z,17.20
2023-03-16T18:29:53.070Z,19.20
2023-03-16T18:39:57.433Z,18.10
2023-03-16T18:50:00.949Z,17.10
2023-03-16T19:00:05.936Z,22.20
2023-03-16T19:10:26.820Z,28.10
2023-03-16T19:20:32.717Z,22.60
2023-03-16T19:30:37.278Z,39.70
2023-03-16T19:40:41.581Z,32.90
2023-03-16T19:50:44.695Z,30.70
2023-03-16T20:00:48.464Z,30.90
2023-03-16T20:10:59.498Z,34.10
2023-03-16T20:21:02.581Z,29.20
2023-03-16T20:31:09.362Z,33.90
2023-03-16T20:41:32.886Z,32.30
2023-03-16T20:51:36.099Z,33.30
2023-03-16T21:01:44.200Z,40.00
2023-03-16T21:11:48.517Z,29.40
2023-03-16T21:21:51.887Z,32.10
2023-03-16T21:31:56.193Z,27.70
2023-03-16T21:41:59.377Z,31.10
2023-03-16T21:52:02.615Z,33.50
2023-03-16T22:02:17.487Z,37.10
2023-03-16T22:12:21.175Z,31.70
2023-03-16T22:22:24.373Z,33.00
2023-03-16T22:32:27.507Z,28.40
2023-03-16T22:42:37.256Z,27.00
2023-03-16T22:52:40.633Z,30.20
2023-03-16T23:02:45.166Z,29.30
2023-03-16T23:12:51.249Z,29.00
2023-03-16T23:22:55.112Z,30.10
2023-03-16T23:32:58.229Z,25.10
2023-03-16T23:43:03.279Z,30.30
2023-03-16T23:53:13.522Z,32.80
